Time;durP1;ratioP1;P1;durP2;ratioP2;P2;SDS_P1;SDS_P2;PMS_P1;PMS_P2;Temp;Humidity;BMP_temperature;BMP_pressure;BME280_temperature;BME280_humidity;BME280_pressure;Samples;Min_cycle;Max_cycle;Signal;HPM_P1;HPM_P2
2022/04/25 00:01:30;;;;;;;27.23;6.95;;;;;;;25.76;54.13;97761.00;4946031;28;20087;-65
2022/04/25 00:04:25;;;;;;;23.48;6.82;;;;;;;25.71;54.32;97768.56;4930911;28;20062;-65
2022/04/25 00:07:14;;;;;;;27.60;7.07;;;;;;;25.60;56.31;97763.63;4946320;29;20162;-65
2022/04/25 00:10:03;;;;;;;19.27;6.30;;;;;;;25.56;57.73;97775.44;4947009;29;20055;-65
2022/04/25 00:12:52;;;;;;;22.70;6.78;;;;;;;25.50;56.92;97774.28;4945455;28;20462;-65
2022/04/25 00:15:33;;;;;;;21.80;6.95;;;;;;;25.45;55.50;97784.50;4945706;29;20052;-65
2022/04/25 00:18:29;;;;;;;27.33;8.40;;;;;;;25.36;57.07;97780.19;4946590;29;20126;-66
2022/04/25 00:21:04;;;;;;;18.23;7.65;;;;;;;25.32;58.03;97778.84;4945374;29;20074;-65
2022/04/25 00:23:53;;;;;;;22.10;8.68;;;;;;;25.29;59.32;97773.91;4945872;29;20047;-66
2022/04/25 00:26:35;;;;;;;30.15;9.75;;;;;;;25.26;57.76;97778.66;4945844;29;20055;-66
2022/04/25 00:29:23;;;;;;;21.05;8.55;;;;;;;25.20;59.02;97782.78;4926895;29;20055;-66
2022/04/25 00:32:05;;;;;;;25.20;10.13;;;;;;;25.18;58.84;97779.47;4927321;29;20040;-65
2022/04/25 00:34:54;;;;;;;38.85;10.95;;;;;;;25.00;53.05;97778.72;4926711;29;20071;-66
2022/04/25 00:37:36;;;;;;;35.58;12.20;;;;;;;24.98;52.85;97768.34;4924695;29;20061;-64
2022/04/25 00:40:25;;;;;;;40.13;12.43;;;;;;;24.99;54.15;97762.09;4927487;29;20051;-64
2022/04/25 00:43:07;;;;;;;32.63;10.70;;;;;;;24.99;55.73;97763.91;4926180;29;20143;-65
2022/04/25 00:46:02;;;;;;;36.63;11.52;;;;;;;25.03;57.11;97773.16;4945274;29;20415;-65
2022/04/25 00:48:38;;;;;;;42.67;9.90;;;;;;;24.99;55.32;97766.53;4944382;29;20077;-65
2022/04/25 00:51:33;;;;;;;32.88;9.25;;;;;;;24.99;59.59;97772.63;4930655;28;20055;-65
2022/04/25 00:54:09;;;;;;;28.40;9.43;;;;;;;24.96;60.34;97767.69;4946836;28;20051;-65
2022/04/25 00:56:58;;;;;;;34.22;9.40;;;;;;;24.90;57.92;97767.47;4950103;29;20134;-65
2022/04/25 00:59:40;;;;;;;31.67;9.30;;;;;;;25.00;59.74;97769.00;4950343;29;20043;-65
2022/04/25 01:02:29;;;;;;;26.20;9.00;;;;;;;25.09;61.15;97768.06;4933316;29;20432;-65
2022/04/25 01:05:12;;;;;;;24.52;8.52;;;;;;;25.02;61.80;97769.69;4948825;28;20047;-64
2022/04/25 01:08:01;;;;;;;34.08;9.68;;;;;;;24.96;61.07;97769.50;4927712;29;20552;-65
2022/04/25 01:10:43;;;;;;;22.38;7.95;;;;;;;25.06;63.19;97778.13;4949683;29;20546;-65
2022/04/25 01:13:32;;;;;;;26.70;9.00;;;;;;;25.00;62.17;97771.66;4930851;29;20052;-65
2022/04/25 01:16:15;;;;;;;28.08;8.80;;;;;;;25.05;61.85;97763.28;4948943;29;20066;-65
2022/04/25 01:19:10;;;;;;;24.23;8.32;;;;;;;25.09;64.20;97767.22;4929240;29;20047;-65
2022/04/25 01:21:52;;;;;;;24.23;8.95;;;;;;;25.06;57.84;97772.84;4930880;29;20044;-65
2022/04/25 01:27:48;;;;;;;33.38;8.38;;;;;;;25.38;61.57;97785.31;4930548;29;20484;-65
2022/04/25 01:30:36;;;;;;;25.90;8.77;;;;;;;25.43;63.58;97791.75;4947837;29;20487;-65
2022/04/25 01:33:19;;;;;;;28.58;8.52;;;;;;;25.53;65.13;97802.16;4947448;29;20054;-65
2022/04/25 01:36:08;;;;;;;40.92;9.55;;;;;;;25.64;59.80;97804.50;4949008;29;20419;-63
2022/04/25 01:38:50;;;;;;;28.55;9.65;;;;;;;25.84;59.86;97800.59;4951315;28;20051;-65
2022/04/25 01:41:40;;;;;;;38.15;11.05;;;;;;;25.93;59.76;97804.06;4949840;28;20126;-65
2022/04/25 01:44:22;;;;;;;25.55;9.73;;;;;;;25.94;62.44;97802.25;4930549;29;20066;-66
2022/04/25 01:47:11;;;;;;;35.50;11.55;;;;;;;26.13;57.51;97802.72;4948110;28;20043;-65
2022/04/25 01:49:53;;;;;;;25.40;9.65;;;;;;;26.22;60.29;97808.84;4911721;29;20056;-66
2022/04/25 01:52:42;;;;;;;34.35;10.10;;;;;;;26.33;62.84;97811.19;4949032;29;20051;-66
2022/04/25 01:55:24;;;;;;;33.92;11.65;;;;;;;26.41;63.61;97818.28;4954181;28;20534;-66
2022/04/25 01:58:13;;;;;;;40.13;10.20;;;;;;;26.57;59.69;97829.66;4929878;29;20574;-65
2022/04/25 02:00:55;;;;;;;32.15;10.88;;;;;;;26.72;53.98;97848.28;4955112;28;20390;-65
2022/04/25 02:03:45;;;;;;;40.42;11.00;;;;;;;26.90;55.74;97837.53;4949154;28;20062;-66
2022/04/25 02:06:28;;;;;;;35.58;9.82;;;;;;;27.06;61.02;97828.75;4941839;28;20047;-66
2022/04/25 02:09:20;;;;;;;47.28;10.00;;;;;;;26.94;50.84;97842.31;4942311;29;20083;-66
2022/04/25 02:12:02;;;;;;;35.60;10.15;;;;;;;27.17;55.06;97852.16;4930789;29;20051;-66
2022/04/25 02:14:51;;;;;;;31.42;10.38;;;;;;;27.46;58.60;97857.66;4930055;29;20539;-67
2022/04/25 02:17:41;;;;;;;38.42;10.18;;;;;;;27.85;57.44;97862.13;4929851;29;20059;-67
2022/04/25 02:20:23;;;;;;;28.85;9.65;;;;;;;28.30;50.94;97870.09;4929392;29;20094;-66
2022/04/25 02:23:12;;;;;;;45.53;10.98;;;;;;;28.75;47.60;97881.63;4929193;29;20128;-67
2022/04/25 02:25:54;;;;;;;37.55;10.30;;;;;;;29.24;48.98;97877.50;4929053;29;20059;-67
2022/04/25 02:28:44;;;;;;;48.55;14.43;;;;;;;29.57;48.88;97880.63;4927349;29;20055;-66
2022/04/25 02:31:33;;;;;;;53.08;17.38;;;;;;;29.52;42.96;97879.53;4928231;29;20530;-67
2022/04/25 02:34:22;;;;;;;35.35;13.48;;;;;;;30.00;43.02;97884.22;4926993;29;20162;-68
2022/04/25 02:37:04;;;;;;;48.13;14.68;;;;;;;30.22;42.85;97887.69;4930264;29;20082;-66
2022/04/25 02:39:53;;;;;;;40.67;13.75;;;;;;;30.05;41.86;97881.81;4929568;29;20536;-67
2022/04/25 02:42:34;;;;;;;40.75;14.68;;;;;;;30.70;41.66;97899.41;4930627;29;20131;-66
2022/04/25 02:45:24;;;;;;;41.05;14.30;;;;;;;30.68;42.09;97890.78;4928326;29;20551;-67
2022/04/25 02:48:06;;;;;;;34.35;11.68;;;;;;;31.04;42.28;97882.69;4929046;29;20048;-67
2022/04/25 02:50:55;;;;;;;37.55;10.82;;;;;;;31.32;40.21;97895.97;4928481;29;20044;-67
2022/04/25 02:53:44;;;;;;;40.25;11.15;;;;;;;31.67;39.70;97887.97;4928554;29;20833;-66
2022/04/25 02:56:26;;;;;;;33.22;9.77;;;;;;;31.45;38.39;97895.22;4928651;29;20052;-64
2022/04/25 02:59:15;;;;;;;31.20;9.93;;;;;;;31.59;38.46;97902.25;4927380;29;20487;-67
2022/04/25 03:01:57;;;;;;;42.72;10.38;;;;;;;31.75;38.42;97887.78;4929553;29;20051;-67
2022/04/25 03:04:52;;;;;;;32.28;9.05;;;;;;;32.16;37.91;97893.06;4922661;28;20052;-67
2022/04/25 03:07:39;;;;;;;30.48;8.77;;;;;;;31.95;35.71;97904.66;4910318;29;20740;-66
2022/04/25 03:10:29;;;;;;;26.83;7.72;;;;;;;32.26;35.54;97906.81;4907240;29;20060;-67
2022/04/25 03:13:12;;;;;;;24.92;7.57;;;;;;;31.82;35.44;97907.28;4908886;29;20068;-67
2022/04/25 03:16:01;;;;;;;25.20;7.28;;;;;;;32.21;35.87;97911.94;4917042;29;20063;-67
2022/04/25 03:18:43;;;;;;;23.30;7.40;;;;;;;31.94;35.06;97913.66;4928660;29;20052;-67
2022/04/25 03:21:32;;;;;;;24.70;7.28;;;;;;;31.90;35.59;97909.78;4927921;29;20047;-67
2022/04/25 03:24:14;;;;;;;27.83;7.22;;;;;;;32.38;35.78;97910.53;4928147;29;20111;-66
2022/04/25 03:27:04;;;;;;;31.90;7.25;;;;;;;32.36;33.65;97914.41;4928407;29;20122;-66
2022/04/25 03:29:53;;;;;;;31.73;8.98;;;;;;;32.27;34.60;97919.94;4926873;29;20052;-66
2022/04/25 03:32:35;;;;;;;33.00;8.00;;;;;;;32.77;38.81;97927.59;4926914;29;20063;-67
2022/04/25 03:35:32;;;;;;;25.48;8.23;;;;;;;32.91;34.97;97926.56;4923304;29;20082;-67
2022/04/25 03:38:08;;;;;;;29.30;7.85;;;;;;;33.05;35.44;97938.88;4928193;29;20094;-66
2022/04/25 03:40:57;;;;;;;21.48;8.30;;;;;;;33.09;39.08;97945.47;4927801;29;20047;-66
2022/04/25 03:43:46;;;;;;;31.50;8.43;;;;;;;33.25;41.32;97947.72;4927744;29;20543;-66
2022/04/25 03:46:28;;;;;;;29.23;7.57;;;;;;;32.94;34.12;97956.34;4925909;29;20158;-66
2022/04/25 03:49:18;;;;;;;26.42;7.43;;;;;;;33.21;34.00;97967.84;4926823;29;20051;-66
2022/04/25 03:52:00;;;;;;;31.35;8.20;;;;;;;32.96;32.59;97970.31;4928516;29;20052;-66
2022/04/25 03:58:04;;;;;;;25.85;7.68;;;;;;;33.92;38.19;97969.78;4928547;29;20059;-66
2022/04/25 04:00:39;;;;;;;27.10;9.25;;;;;;;33.91;35.75;97978.81;4912244;29;20047;-66
2022/04/25 04:03:28;;;;;;;37.08;9.52;;;;;;;33.64;34.18;97973.53;4926169;29;20131;-66
2022/04/25 04:06:23;;;;;;;32.35;9.57;;;;;;;34.09;31.65;97978.94;4945380;28;20047;-66
2022/04/25 04:08:58;;;;;;;24.13;9.32;;;;;;;34.36;35.28;97980.47;4945079;29;20055;-67
2022/04/25 04:11:47;;;;;;;36.50;11.38;;;;;;;34.18;32.51;97985.69;4947489;29;20058;-67
2022/04/25 04:14:29;;;;;;;38.60;10.27;;;;;;;34.51;35.46;97983.69;4927893;29;20748;-67
2022/04/25 04:17:17;;;;;;;26.27;9.85;;;;;;;34.72;39.68;97981.72;4946266;29;20063;-66
2022/04/25 04:20:00;;;;;;;32.50;10.57;;;;;;;34.82;34.87;97992.75;4946950;29;20055;-67
2022/04/25 04:22:48;;;;;;;49.00;11.77;;;;;;;35.29;32.18;98000.22;4946776;29;20423;-68
2022/04/25 04:25:37;;;;;;;34.85;10.13;;;;;;;34.80;31.37;98010.91;4947082;29;20062;-68
2022/04/25 04:28:26;;;;;;;26.75;10.07;;;;;;;35.03;28.21;98016.50;4930355;29;20059;-65
2022/04/25 04:31:08;;;;;;;26.77;10.05;;;;;;;35.40;33.30;98013.94;4931417;29;20404;-63
2022/04/25 04:33:56;;;;;;;27.80;9.90;;;;;;;35.80;39.99;98009.84;4950455;29;20039;-65
2022/04/25 04:36:39;;;;;;;25.75;10.20;;;;;;;35.70;33.42;98006.81;4929287;29;20063;-65
2022/04/25 04:39:28;;;;;;;38.03;12.02;;;;;;;35.86;34.76;98008.13;4949760;29;20118;-65
2022/04/25 04:42:10;;;;;;;38.85;10.70;;;;;;;35.76;32.22;98011.31;4948525;29;20051;-65
2022/04/25 04:45:00;;;;;;;28.83;9.82;;;;;;;36.03;35.05;98011.84;4947908;29;20058;-65
2022/04/25 04:47:49;;;;;;;32.83;9.70;;;;;;;35.88;36.02;98016.78;4945854;28;20059;-65
2022/04/25 04:50:38;;;;;;;44.15;11.32;;;;;;;36.24;33.78;98021.34;4949186;28;20106;-65
2022/04/25 04:53:27;;;;;;;22.90;8.10;;;;;;;36.20;35.34;98023.63;4949157;29;20058;-65
2022/04/25 04:56:08;;;;;;;29.25;9.02;;;;;;;36.47;27.15;98024.13;4924605;29;20063;-65
2022/04/25 04:58:57;;;;;;;21.83;7.75;;;;;;;36.76;31.61;98028.69;4948791;29;20055;-64
2022/04/25 05:01:39;;;;;;;20.05;7.60;;;;;;;36.78;31.83;98026.59;4950007;28;20133;-65
2022/04/25 05:04:28;;;;;;;22.92;6.90;;;;;;;36.53;28.00;98022.38;4931216;28;20519;-64
2022/04/25 05:07:17;;;;;;;22.83;6.78;;;;;;;36.80;30.77;98027.16;4930822;29;20047;-65
2022/04/25 05:09:58;;;;;;;22.63;7.85;;;;;;;36.22;27.32;98034.97;4932282;29;20043;-65
2022/04/25 05:12:59;;;;;;;26.60;7.15;;;;;;;36.92;29.76;98027.19;4939680;29;20071;-65
2022/04/25 05:15:48;;;;;;;18.50;6.05;;;;;;;36.32;27.16;98023.72;4916681;29;20104;-65
2022/04/25 05:18:37;;;;;;;23.05;7.20;;;;;;;36.71;32.12;98025.88;4930856;29;21268;-63
2022/04/25 05:21:25;;;;;;;29.70;6.88;;;;;;;37.01;32.19;98019.63;4929998;29;20047;-63
2022/04/25 05:24:15;;;;;;;23.17;6.15;;;;;;;37.08;30.16;98015.78;4933580;29;20087;-63
2022/04/25 05:27:11;;;;;;;15.05;5.07;;;;;;;37.35;31.67;98016.19;4937564;29;20051;-63
2022/04/25 05:29:46;;;;;;;22.05;6.13;;;;;;;37.00;26.67;98017.97;4927229;29;20083;-64
2022/04/25 05:32:48;;;;;;;20.40;5.20;;;;;;;37.14;28.68;98014.88;4933532;29;20055;-64
2022/04/25 05:35:33;;;;;;;23.33;6.47;;;;;;;37.03;35.93;98022.91;4934058;29;20047;-63
2022/04/25 05:38:21;;;;;;;23.58;6.72;;;;;;;36.83;31.56;98027.75;4933794;29;20055;-63
2022/04/25 05:41:03;;;;;;;26.55;7.05;;;;;;;36.88;28.41;98028.69;4931034;29;20047;-64
2022/04/25 05:43:52;;;;;;;20.33;6.80;;;;;;;37.45;28.76;98037.91;4914167;29;20051;-64
2022/04/25 05:46:41;;;;;;;14.80;6.50;;;;;;;36.88;26.60;98036.75;4930578;29;20051;-64
2022/04/25 05:52:30;;;;;;;18.17;7.55;;;;;;;37.01;31.58;98039.25;4945656;29;20119;-63
2022/04/25 05:55:19;;;;;;;23.73;7.45;;;;;;;36.80;29.12;98031.69;4938892;29;20047;-64
2022/04/25 05:58:08;;;;;;;19.63;7.55;;;;;;;36.79;27.32;98033.59;4937564;29;20051;-65
2022/04/25 06:00:49;;;;;;;26.47;6.60;;;;;;;37.06;27.11;98028.63;4938791;29;20060;-64
2022/04/25 06:03:39;;;;;;;18.08;5.90;;;;;;;37.30;33.05;98018.75;4933525;29;20044;-64
2022/04/25 06:06:23;;;;;;;35.63;8.00;;;;;;;37.41;32.77;98019.81;4944741;29;20658;-64
2022/04/25 06:09:12;;;;;;;21.38;7.10;;;;;;;37.22;29.19;98021.78;4948587;29;20054;-64
2022/04/25 06:11:54;;;;;;;20.27;6.32;;;;;;;37.29;28.40;98021.66;4948646;29;20043;-64
2022/04/25 06:14:44;;;;;;;19.77;6.85;;;;;;;37.26;27.08;98017.59;4947032;29;20542;-64
2022/04/25 06:17:26;;;;;;;19.60;7.43;;;;;;;37.14;28.73;98012.19;4934800;29;20062;-65
2022/04/25 06:20:17;;;;;;;17.20;6.70;;;;;;;37.27;28.16;98013.84;4947923;28;20130;-65
2022/04/25 06:23:02;;;;;;;15.95;6.97;;;;;;;37.01;26.69;98012.38;4948819;28;20047;-64
2022/04/25 06:25:51;;;;;;;32.33;7.45;;;;;;;36.96;27.78;98011.44;4929260;29;20055;-65
2022/04/25 06:28:32;;;;;;;19.08;7.20;;;;;;;37.19;30.78;98010.69;4929575;29;20047;-64
2022/04/25 06:31:23;;;;;;;26.65;7.53;;;;;;;37.00;34.09;98001.88;4945114;29;20062;-65
2022/04/25 06:34:05;;;;;;;20.10;6.68;;;;;;;36.90;33.09;98001.59;4929668;29;20052;-66
2022/04/25 06:36:55;;;;;;;26.75;8.05;;;;;;;37.17;29.30;98001.00;4930155;29;20055;-65
2022/04/25 06:39:50;;;;;;;20.35;9.93;;;;;;;36.99;26.82;97994.84;4929500;29;20058;-64
2022/04/25 06:42:25;;;;;;;33.60;10.63;;;;;;;37.18;27.42;97991.06;4929824;29;20051;-64
2022/04/25 06:45:15;;;;;;;30.90;10.63;;;;;;;37.21;28.57;97992.44;4946148;28;20066;-65
2022/04/25 06:48:04;;;;;;;36.72;8.30;;;;;;;36.56;25.51;97989.72;4934463;29;20125;-63
2022/04/25 06:50:55;;;;;;;29.42;9.18;;;;;;;36.75;25.24;97984.06;4951532;28;20051;-65
2022/04/25 06:53:44;;;;;;;23.80;7.20;;;;;;;36.94;27.83;97975.94;4947807;29;20652;-65
2022/04/25 06:56:26;;;;;;;35.33;8.73;;;;;;;36.97;29.88;97967.38;4948730;29;20680;-64
2022/04/25 06:59:15;;;;;;;34.75;7.55;;;;;;;36.68;28.55;97969.94;4948172;29;20142;-64
2022/04/25 07:01:57;;;;;;;17.73;6.68;;;;;;;36.80;28.75;97970.75;4959064;28;20059;-64
2022/04/25 07:04:52;;;;;;;18.20;5.00;;;;;;;36.98;27.85;97955.59;4947098;29;20054;-64
2022/04/25 07:07:40;;;;;;;28.00;4.90;;;;;;;37.09;28.21;97960.19;4948818;29;20459;-64
2022/04/25 07:10:29;;;;;;;11.85;4.05;;;;;;;37.02;27.57;97960.28;4947050;29;20047;-64
2022/04/25 07:13:10;;;;;;;24.67;5.20;;;;;;;37.04;26.41;97951.97;4936185;29;20051;-65
2022/04/25 07:16:00;;;;;;;17.95;5.00;;;;;;;37.21;28.56;97955.63;4934872;29;20066;-64
2022/04/25 07:18:42;;;;;;;21.75;5.50;;;;;;;37.22;29.13;97945.69;4927612;29;20048;-64
2022/04/25 07:30:58;;;;;;;24.35;6.97;;;;;;;37.09;26.01;97941.38;4928365;29;20792;-65
2022/04/25 07:33:47;;;;;;;18.63;5.57;;;;;;;37.11;29.34;97942.78;4930953;29;20062;-63
2022/04/25 07:36:29;;;;;;;18.20;5.00;;;;;;;37.21;29.66;97939.50;4936696;29;20158;-63
2022/04/25 07:39:18;;;;;;;18.42;5.43;;;;;;;37.18;29.54;97937.31;4934095;29;20047;-65
2022/04/25 07:42:00;;;;;;;18.98;5.22;;;;;;;37.02;27.64;97930.75;4933967;29;20153;-63
2022/04/25 07:44:49;;;;;;;21.40;4.35;;;;;;;37.05;26.64;97929.44;4928980;29;20055;-64
2022/04/25 07:47:32;;;;;;;19.73;4.97;;;;;;;36.94;29.53;97922.22;4928603;29;20055;-63
2022/04/25 07:50:23;;;;;;;24.83;5.78;;;;;;;36.95;28.07;97926.53;4928345;29;20055;-64
2022/04/25 07:53:12;;;;;;;26.05;5.65;;;;;;;36.66;26.68;97923.69;4929053;29;20052;-64
2022/04/25 07:55:54;;;;;;;17.00;4.32;;;;;;;36.80;27.74;97916.22;4929220;29;20047;-63
2022/04/25 07:58:42;;;;;;;16.85;4.18;;;;;;;36.82;26.69;97919.50;4927440;29;20756;-64
2022/04/25 08:01:24;;;;;;;20.10;4.28;;;;;;;36.82;26.62;97902.56;4927600;29;20697;-64
2022/04/25 08:04:20;;;;;;;16.52;4.90;;;;;;;36.80;28.46;97905.47;4934086;29;20062;-64
2022/04/25 08:07:02;;;;;;;20.23;4.60;;;;;;;36.55;25.65;97892.25;4942360;29;20058;-64
2022/04/25 08:09:51;;;;;;;17.15;5.75;;;;;;;36.62;29.01;97892.97;4931895;29;20047;-64
2022/04/25 08:18:47;;;;;;;24.70;6.07;;;;;;;36.51;30.66;97872.28;4933569;29;20122;-64
2022/04/25 08:21:29;;;;;;;28.35;5.57;;;;;;;36.41;30.07;97872.03;4932952;29;20150;-64
2022/04/25 08:24:18;;;;;;;21.48;5.90;;;;;;;36.33;26.52;97857.06;4930596;29;20629;-64
2022/04/25 08:27:07;;;;;;;17.52;5.53;;;;;;;36.25;30.08;97857.41;4933381;29;20051;-64
2022/04/25 08:29:49;;;;;;;22.67;5.75;;;;;;;36.37;30.72;97858.25;4933918;29;20115;-64
2022/04/25 08:32:39;;;;;;;18.83;5.88;;;;;;;36.40;32.69;97856.97;4933311;29;20055;-64
2022/04/25 08:35:21;;;;;;;27.42;6.22;;;;;;;36.36;32.02;97850.44;4917034;29;20055;-64
2022/04/25 08:38:10;;;;;;;23.85;5.95;;;;;;;36.20;29.49;97846.56;4933553;29;20055;-64
2022/04/25 08:40:52;;;;;;;32.95;7.40;;;;;;;36.16;31.41;97842.66;4934259;29;20475;-63
2022/04/25 08:43:41;;;;;;;22.75;6.60;;;;;;;36.07;27.96;97835.19;4933382;29;20059;-64
2022/04/25 08:46:23;;;;;;;31.98;7.53;;;;;;;36.07;29.33;97835.19;4916456;29;20057;-63
2022/04/25 08:49:12;;;;;;;23.02;6.28;;;;;;;35.93;27.55;97827.31;4933264;29;20047;-64
2022/04/25 08:51:58;;;;;;;29.17;7.57;;;;;;;35.95;27.70;97827.91;4934089;29;20114;-64
2022/04/25 08:54:47;;;;;;;47.05;7.80;;;;;;;36.04;30.47;97826.53;4933868;29;20063;-62
2022/04/25 08:57:43;;;;;;;27.02;7.72;;;;;;;36.02;28.56;97817.91;4932806;29;20055;-64
2022/04/25 09:00:18;;;;;;;21.45;6.13;;;;;;;36.00;31.17;97803.06;4935323;29;20349;-65
2022/04/25 09:03:07;;;;;;;28.02;6.18;;;;;;;35.96;29.99;97810.78;4934193;29;20115;-66
2022/04/25 09:05:58;;;;;;;33.65;6.63;;;;;;;35.87;31.63;97795.22;4897561;29;20555;-65
2022/04/25 09:08:47;;;;;;;30.67;6.90;;;;;;;35.88;29.55;97794.19;4930307;29;20040;-64
2022/04/25 09:14:46;;;;;;;23.98;7.65;;;;;;;35.84;29.42;97796.50;4929327;29;20122;-64
2022/04/25 09:17:41;;;;;;;27.48;6.63;;;;;;;35.69;27.62;97788.84;4930326;29;20052;-65
2022/04/25 09:20:30;;;;;;;26.63;6.97;;;;;;;35.67;26.69;97776.75;4930800;29;20051;-64
2022/04/25 09:23:26;;;;;;;27.35;7.75;;;;;;;35.63;31.59;97776.38;4930079;29;20054;-61
2022/04/25 09:26:17;;;;;;;23.25;6.07;;;;;;;35.49;29.54;97774.09;4929408;29;20127;-65
2022/04/25 09:29:01;;;;;;;21.50;6.50;;;;;;;35.41;31.98;97767.19;4929741;29;20405;-65
2022/04/25 09:31:50;;;;;;;31.00;8.35;;;;;;;35.59;29.09;97769.03;4930511;29;20559;-63
2022/04/25 09:37:47;;;;;;;28.35;7.45;;;;;;;35.47;30.43;97762.78;4936916;29;20083;-64
2022/04/25 09:40:32;;;;;;;27.13;6.90;;;;;;;35.42;31.93;97763.47;4935868;29;20071;-65
2022/04/25 09:43:29;;;;;;;22.63;7.32;;;;;;;35.39;32.74;97755.88;4930237;29;20432;-64
2022/04/25 09:46:14;;;;;;;31.20;6.90;;;;;;;35.34;31.31;97755.75;4931019;29;20476;-65
2022/04/25 09:49:04;;;;;;;21.45;7.10;;;;;;;35.28;32.53;97744.06;4930225;29;20075;-64
2022/04/25 09:52:04;;;;;;;29.38;6.95;;;;;;;35.16;32.94;97739.66;4930144;29;20055;-65
2022/04/25 09:54:53;;;;;;;24.70;6.80;;;;;;;35.02;31.51;97735.53;4930230;29;20051;-64
2022/04/25 09:57:37;;;;;;;17.87;7.03;;;;;;;34.96;36.08;97739.94;4928532;29;20495;-65
2022/04/25 10:00:36;;;;;;;26.45;8.13;;;;;;;34.92;30.85;97746.75;4930865;29;20052;-64
2022/04/25 10:03:21;;;;;;;36.42;7.78;;;;;;;34.81;32.28;97745.63;4930325;29;20073;-64
2022/04/25 10:06:16;;;;;;;23.48;7.18;;;;;;;34.75;33.52;97738.50;4934576;29;20625;-65
2022/04/25 10:08:53;;;;;;;19.45;6.53;;;;;;;34.74;30.97;97733.38;4947406;29;20498;-65
2022/04/25 10:11:43;;;;;;;23.38;6.65;;;;;;;34.71;33.62;97728.44;4949779;29;20068;-65
2022/04/25 10:14:34;;;;;;;31.48;6.85;;;;;;;34.76;31.19;97725.94;4949470;29;20051;-65
2022/04/25 10:17:16;;;;;;;30.60;7.40;;;;;;;34.67;34.26;97717.34;4949568;29;20412;-65
2022/04/25 10:20:11;;;;;;;23.65;6.88;;;;;;;34.58;33.33;97721.38;4947397;28;20082;-65
2022/04/25 10:22:53;;;;;;;32.80;6.93;;;;;;;34.53;35.04;97714.00;4946405;28;20384;-64
2022/04/25 10:25:43;;;;;;;31.30;7.18;;;;;;;34.50;32.79;97705.59;4947288;28;20365;-65
2022/04/25 10:28:31;;;;;;;23.98;7.07;;;;;;;34.45;34.58;97708.97;4948707;29;20138;-65
2022/04/25 10:31:48;;;;;;;29.80;6.95;;;;;;;34.43;31.77;97708.34;4928644;29;20055;-65
2022/04/25 10:34:47;;;;;;;30.42;7.25;;;;;;;34.48;32.20;97702.34;4942122;29;20098;-65
2022/04/25 10:37:44;;;;;;;36.25;6.72;;;;;;;34.50;31.89;97695.72;4946764;29;20105;-65
2022/04/25 10:47:16;;;;;;;24.00;6.95;;;;;;;34.65;32.29;97692.66;4868535;29;20100;-66
2022/04/25 10:50:06;;;;;;;35.53;8.35;;;;;;;34.63;32.13;97688.59;4947913;29;20058;-66
2022/04/25 10:55:42;;;;;;;25.23;7.22;;;;;;;34.57;31.98;97679.59;4947091;29;20062;-66
2022/04/25 10:58:24;;;;;;;35.60;6.88;;;;;;;34.62;31.20;97692.31;4945539;29;20047;-67
2022/04/25 11:01:13;;;;;;;27.77;7.88;;;;;;;34.68;30.70;97686.06;4949042;28;20577;-68
2022/04/25 11:04:05;;;;;;;27.85;7.10;;;;;;;34.70;31.19;97683.97;4947705;29;20054;-68
2022/04/25 11:06:55;;;;;;;22.38;7.22;;;;;;;34.64;31.40;97685.72;4947196;29;20043;-64
2022/04/25 11:09:50;;;;;;;18.95;7.03;;;;;;;34.64;32.32;97677.69;4946698;29;20051;-65
2022/04/25 11:12:56;;;;;;;27.25;7.03;;;;;;;34.57;31.91;97684.94;4945466;28;20062;-66
2022/04/25 11:15:47;;;;;;;29.77;7.13;;;;;;;34.64;30.96;97676.84;4929064;29;20149;-65
2022/04/25 11:18:41;;;;;;;27.80;8.10;;;;;;;34.60;30.99;97683.69;4945370;28;20054;-65
2022/04/25 11:21:32;;;;;;;29.67;8.15;;;;;;;34.58;32.13;97685.75;4947305;29;20121;-65
2022/04/25 11:24:42;;;;;;;30.17;8.27;;;;;;;34.61;32.72;97671.94;4943292;29;20055;-65
2022/04/25 11:27:24;;;;;;;30.70;7.90;;;;;;;34.51;31.47;97675.94;4944003;28;20313;-65
2022/04/25 11:30:21;;;;;;;31.65;7.30;;;;;;;34.42;33.14;97674.59;4945302;29;20074;-64
2022/04/25 11:33:05;;;;;;;30.55;8.30;;;;;;;34.41;31.86;97672.97;4946488;29;20555;-65
2022/04/25 11:36:06;;;;;;;25.05;6.78;;;;;;;34.31;33.39;97669.19;4946212;29;20050;-64
2022/04/25 11:41:56;;;;;;;24.90;6.85;;;;;;;34.16;36.39;97664.97;4943126;29;20058;-65
2022/04/25 11:44:46;;;;;;;23.45;6.97;;;;;;;34.04;33.79;97663.25;4946313;29;20055;-66
2022/04/25 11:47:28;;;;;;;28.45;7.07;;;;;;;34.02;36.47;97667.97;4945419;29;20073;-65
2022/04/25 11:50:23;;;;;;;32.67;7.90;;;;;;;33.93;34.39;97661.28;4928055;29;20138;-67
2022/04/25 11:53:06;;;;;;;34.72;6.97;;;;;;;33.85;36.26;97661.56;4930822;29;20047;-65
2022/04/25 11:55:55;;;;;;;32.30;7.30;;;;;;;33.74;35.03;97663.91;4943406;29;20341;-65
2022/04/25 11:58:37;;;;;;;28.65;7.53;;;;;;;33.68;34.38;97663.94;4941660;29;20550;-65
2022/04/25 12:01:38;;;;;;;32.92;7.40;;;;;;;33.62;36.15;97668.28;4944061;28;20051;-66
2022/04/25 12:04:39;;;;;;;36.22;7.43;;;;;;;33.49;37.73;97657.72;4945212;29;20534;-66
2022/04/25 12:07:28;;;;;;;35.55;8.80;;;;;;;33.38;34.07;97666.41;4945210;29;20486;-66
2022/04/25 12:16:36;;;;;;;33.95;7.82;;;;;;;33.16;35.69;97665.06;4946692;29;20384;-67
2022/04/25 12:19:18;;;;;;;30.50;8.10;;;;;;;33.15;37.51;97658.09;4944665;29;20059;-65
2022/04/25 12:22:11;;;;;;;27.33;7.85;;;;;;;33.02;39.57;97659.00;4947557;29;20479;-66
2022/04/25 12:25:13;;;;;;;43.13;7.45;;;;;;;32.93;38.25;97665.63;4946514;29;20049;-66
2022/04/25 12:28:32;;;;;;;31.88;8.35;;;;;;;32.85;35.71;97663.19;4946443;29;20066;-63
2022/04/25 12:31:15;;;;;;;31.98;7.70;;;;;;;32.79;44.70;97670.19;4946428;29;20051;-64
2022/04/25 12:34:16;;;;;;;31.23;7.32;;;;;;;32.64;39.42;97677.63;4946660;29;20055;-64
2022/04/25 12:37:05;;;;;;;37.38;7.57;;;;;;;32.62;37.29;97677.00;4945714;29;20531;-65
2022/04/25 12:40:06;;;;;;;32.25;8.05;;;;;;;32.59;38.28;97685.41;4937521;29;20142;-65
2022/04/25 12:42:57;;;;;;;40.67;9.30;;;;;;;32.61;37.16;97688.69;4947275;29;20051;-66
2022/04/25 12:45:55;;;;;;;29.92;7.43;;;;;;;32.56;37.65;97686.69;4946675;29;20122;-65
2022/04/25 12:49:01;;;;;;;35.03;8.88;;;;;;;32.48;38.16;97689.56;4948104;28;20051;-66
2022/04/25 12:51:58;;;;;;;36.95;7.57;;;;;;;32.44;39.96;97685.66;4936399;29;20062;-66
2022/04/25 12:54:55;;;;;;;39.95;7.47;;;;;;;32.38;37.35;97691.03;4950902;29;20047;-66
2022/04/25 12:57:31;;;;;;;34.90;8.30;;;;;;;32.31;37.64;97693.72;4949918;29;20051;-64
2022/04/25 13:00:29;;;;;;;42.15;9.65;;;;;;;32.28;37.09;97691.44;4950992;28;20051;-64
2022/04/25 13:03:04;;;;;;;36.47;8.63;;;;;;;32.24;37.42;97693.72;4951149;28;20539;-65
2022/04/25 13:06:00;;;;;;;39.00;9.18;;;;;;;32.21;38.04;97694.13;4948901;28;20424;-66
2022/04/25 13:08:52;;;;;;;34.55;8.68;;;;;;;32.17;38.51;97697.41;4926243;29;20056;-64
2022/04/25 13:12:01;;;;;;;40.90;9.25;;;;;;;32.11;40.25;97698.19;4938223;29;20047;-64
2022/04/25 13:14:43;;;;;;;29.10;7.93;;;;;;;32.06;38.91;97698.00;4944584;29;20051;-66
2022/04/25 13:17:32;;;;;;;40.28;9.88;;;;;;;31.95;39.12;97699.44;4935536;29;20058;-66
2022/04/25 13:20:16;;;;;;;34.90;8.30;;;;;;;31.91;44.40;97698.22;4936293;29;20460;-65
2022/04/25 13:23:07;;;;;;;28.17;7.60;;;;;;;31.78;41.86;97704.34;4934026;29;20056;-66
2022/04/25 13:25:48;;;;;;;38.75;7.85;;;;;;;31.70;42.19;97701.06;4929056;29;20063;-64
2022/04/25 13:28:38;;;;;;;48.38;9.65;;;;;;;31.58;42.28;97705.34;4933156;29;20052;-64
2022/04/25 13:31:21;;;;;;;41.03;9.52;;;;;;;31.47;43.42;97709.41;4935077;29;20460;-63
2022/04/25 13:34:09;;;;;;;51.13;9.55;;;;;;;31.39;44.57;97720.25;4933335;29;20043;-64
2022/04/25 13:36:51;;;;;;;43.63;8.95;;;;;;;31.28;42.14;97711.03;4937213;29;20058;-66
2022/04/25 13:39:41;;;;;;;30.60;8.38;;;;;;;31.26;44.54;97718.38;4932086;29;20055;-65
2022/04/25 13:42:23;;;;;;;33.83;9.20;;;;;;;31.13;43.57;97719.16;4930933;29;20079;-64
2022/04/25 13:45:12;;;;;;;30.33;8.95;;;;;;;31.10;46.86;97716.09;4929879;29;20400;-65
2022/04/25 13:48:09;;;;;;;40.75;9.35;;;;;;;30.96;45.73;97725.84;4930912;29;20055;-65
2022/04/25 13:50:44;;;;;;;65.07;10.13;;;;;;;30.90;47.77;97729.25;4935259;29;20058;-65